createdAt,value
2018-12-12T00:00:27.575Z,6.95
2018-12-12T00:02:55.026Z,7.00
2018-12-12T00:05:22.491Z,6.50
2018-12-12T00:07:49.942Z,6.83
2018-12-12T00:10:19.472Z,7.03
2018-12-12T00:12:48.272Z,8.93
2018-12-12T00:15:17.265Z,7.90
2018-12-12T00:17:44.782Z,8.50
2018-12-12T00:20:12.233Z,9.23
2018-12-12T00:22:39.705Z,9.90
2018-12-12T00:25:07.151Z,10.10
2018-12-12T00:27:34.642Z,11.90
2018-12-12T00:30:02.097Z,10.98
2018-12-12T00:32:29.551Z,12.07
2018-12-12T00:34:56.992Z,11.33
2018-12-12T00:37:24.465Z,13.05
2018-12-12T00:39:51.911Z,12.20
2018-12-12T00:42:19.386Z,12.40
2018-12-12T00:44:46.825Z,12.30
2018-12-12T00:47:14.624Z,10.72
2018-12-12T00:49:42.487Z,9.63
2018-12-12T00:52:09.951Z,8.70
2018-12-12T00:54:37.698Z,8.18
2018-12-12T00:57:05.147Z,8.80
2018-12-12T00:59:32.617Z,9.75
2018-12-12T01:02:00.069Z,10.65
2018-12-12T01:04:27.526Z,8.90
2018-12-12T01:06:55.123Z,9.48
2018-12-12T01:09:22.698Z,8.58
2018-12-12T01:11:55.924Z,8.73
2018-12-12T01:14:23.367Z,9.28
2018-12-12T01:16:50.825Z,10.10
2018-12-12T01:19:18.288Z,9.90
2018-12-12T01:21:46.362Z,9.70
2018-12-12T01:24:13.847Z,9.00
2018-12-12T01:26:41.285Z,8.90
2018-12-12T01:29:08.746Z,9.63
2018-12-12T01:31:36.912Z,9.25
2018-12-12T01:34:04.373Z,8.85
2018-12-12T01:36:31.825Z,9.90
2018-12-12T01:38:59.285Z,9.45
2018-12-12T01:41:26.732Z,9.45
2018-12-12T01:43:54.217Z,10.88
2018-12-12T01:46:21.677Z,9.28
2018-12-12T01:48:49.112Z,8.95
2018-12-12T01:51:16.592Z,10.25
2018-12-12T01:53:46.018Z,11.00
2018-12-12T01:56:13.489Z,11.08
2018-12-12T01:58:41.013Z,11.05
2018-12-12T02:01:08.467Z,11.22
2018-12-12T02:03:35.911Z,10.58
2018-12-12T02:06:03.463Z,11.38
2018-12-12T02:08:30.913Z,10.45
2018-12-12T02:10:58.463Z,9.83
2018-12-12T02:13:34.453Z,9.80
2018-12-12T02:16:03.805Z,11.55
2018-12-12T02:18:32.818Z,10.82
2018-12-12T02:21:00.657Z,9.80
2018-12-12T02:23:28.103Z,10.48
2018-12-12T02:25:55.821Z,9.13
2018-12-12T02:28:23.303Z,11.28
2018-12-12T02:30:50.796Z,10.23
2018-12-12T02:33:18.313Z,10.88
2018-12-12T02:35:45.763Z,9.85
2018-12-12T02:38:13.233Z,11.65
2018-12-12T02:40:40.676Z,12.33
2018-12-12T02:43:08.130Z,10.70
2018-12-12T02:45:35.672Z,11.43
2018-12-12T02:48:03.208Z,11.18
2018-12-12T02:50:30.673Z,10.95
2018-12-12T02:52:58.185Z,10.80
2018-12-12T02:55:25.634Z,11.53
2018-12-12T02:57:54.044Z,11.38
2018-12-12T03:00:21.510Z,13.00
2018-12-12T03:02:48.951Z,12.85
2018-12-12T03:05:16.426Z,12.55
2018-12-12T03:07:43.860Z,12.95
2018-12-12T03:10:12.022Z,13.00
2018-12-12T03:12:39.454Z,10.90
2018-12-12T03:15:06.929Z,12.35
2018-12-12T03:17:34.718Z,12.35
2018-12-12T03:20:02.196Z,11.55
2018-12-12T03:22:29.754Z,13.38
2018-12-12T03:24:57.213Z,12.28
2018-12-12T03:27:24.674Z,13.53
2018-12-12T03:29:52.117Z,12.07
2018-12-12T03:32:19.578Z,11.55
2018-12-12T03:34:47.115Z,12.85
2018-12-12T03:37:14.574Z,12.75
2018-12-12T03:39:42.020Z,12.37
2018-12-12T03:42:09.549Z,10.65
2018-12-12T03:44:37.086Z,11.97
2018-12-12T03:47:04.929Z,12.30
2018-12-12T03:49:32.383Z,11.25
2018-12-12T03:51:59.833Z,11.40
2018-12-12T03:54:27.294Z,11.60
2018-12-12T03:56:54.761Z,10.85
2018-12-12T03:59:22.223Z,11.70
2018-12-12T04:01:49.745Z,11.40
2018-12-12T04:04:17.189Z,12.40
2018-12-12T04:06:44.653Z,10.85
2018-12-12T04:09:12.120Z,10.75
2018-12-12T04:11:39.670Z,11.18
2018-12-12T04:14:07.148Z,12.07
2018-12-12T04:16:34.662Z,10.80
2018-12-12T04:19:02.235Z,10.95
2018-12-12T04:21:29.678Z,11.53
2018-12-12T04:23:57.137Z,12.40
2018-12-12T04:26:24.582Z,12.23
2018-12-12T04:28:52.043Z,12.40
2018-12-12T04:31:19.491Z,11.57
2018-12-12T04:33:46.962Z,11.50
2018-12-12T04:36:14.414Z,11.93
2018-12-12T04:38:42.598Z,11.70
2018-12-12T04:41:10.058Z,11.53
2018-12-12T04:43:37.516Z,10.55
2018-12-12T04:46:06.043Z,11.65
2018-12-12T04:48:33.603Z,10.03
2018-12-12T04:51:01.057Z,11.63
2018-12-12T04:53:28.516Z,11.60
2018-12-12T04:55:55.963Z,10.68
2018-12-12T04:58:23.421Z,11.08
2018-12-12T05:00:50.911Z,10.18
2018-12-12T05:03:18.353Z,9.10
2018-12-12T05:05:45.831Z,7.55
2018-12-12T05:08:13.263Z,8.03
2018-12-12T05:10:40.726Z,7.72
2018-12-12T05:13:08.253Z,7.00
2018-12-12T05:15:35.727Z,8.55
2018-12-12T05:18:03.163Z,8.75
2018-12-12T05:20:30.622Z,9.53
2018-12-12T05:22:58.085Z,8.83
2018-12-12T05:25:25.585Z,8.75
2018-12-12T05:27:53.028Z,8.18
2018-12-12T05:30:20.494Z,8.88
2018-12-12T05:32:47.940Z,9.13
2018-12-12T05:35:15.393Z,8.33
2018-12-12T05:37:50.831Z,9.90
2018-12-12T05:40:12.670Z,8.58
2018-12-12T05:42:40.189Z,8.25
2018-12-12T05:45:07.677Z,9.05
2018-12-12T05:47:35.137Z,9.33
2018-12-12T05:50:02.666Z,9.80
2018-12-12T05:52:30.160Z,7.85
2018-12-12T05:54:57.618Z,8.80
2018-12-12T05:57:25.165Z,8.75
2018-12-12T05:59:52.613Z,8.65
2018-12-12T06:02:20.066Z,8.60
2018-12-12T06:04:47.513Z,9.40
2018-12-12T06:07:14.977Z,9.00
2018-12-12T06:09:42.432Z,8.38
2018-12-12T06:12:09.905Z,8.43
2018-12-12T06:14:38.094Z,8.38
2018-12-12T06:17:05.525Z,9.25
2018-12-12T06:19:32.989Z,9.48
2018-12-12T06:22:00.450Z,8.90
2018-12-12T06:24:27.884Z,9.75
2018-12-12T06:26:55.382Z,9.93
2018-12-12T06:29:22.829Z,9.90
2018-12-12T06:31:50.361Z,10.72
2018-12-12T06:34:17.823Z,8.53
2018-12-12T06:36:45.266Z,10.00
2018-12-12T06:39:12.793Z,10.60
2018-12-12T06:41:40.269Z,12.23
2018-12-12T06:44:07.746Z,10.63
2018-12-12T06:46:35.194Z,10.20
2018-12-12T06:49:02.653Z,10.72
2018-12-12T06:51:30.100Z,10.55
2018-12-12T06:53:57.570Z,11.08
2018-12-12T06:56:25.103Z,10.90
2018-12-12T06:58:52.574Z,10.72
2018-12-12T07:01:20.025Z,11.25
2018-12-12T07:03:47.530Z,12.33
2018-12-12T07:06:15.055Z,12.80
2018-12-12T07:08:42.522Z,14.50
2018-12-12T07:11:09.977Z,15.25
2018-12-12T07:13:37.422Z,13.00
2018-12-12T07:16:04.891Z,12.95
2018-12-12T07:18:32.333Z,12.60
2018-12-12T07:20:59.794Z,12.55
2018-12-12T07:23:27.235Z,12.90
2018-12-12T07:25:54.697Z,13.22
2018-12-12T07:28:22.150Z,14.70
2018-12-12T07:30:49.616Z,16.50
2018-12-12T07:33:17.069Z,14.58
2018-12-12T07:35:44.549Z,13.53
2018-12-12T07:38:12.053Z,14.50
2018-12-12T07:40:40.410Z,13.35
2018-12-12T07:43:07.911Z,12.68
2018-12-12T07:45:35.381Z,12.00
2018-12-12T07:48:02.923Z,12.47
2018-12-12T07:50:30.385Z,13.65
2018-12-12T07:52:57.836Z,12.47
2018-12-12T07:55:25.289Z,12.95
2018-12-12T07:57:52.765Z,12.35
2018-12-12T08:00:20.287Z,12.45
2018-12-12T08:02:47.754Z,11.60
2018-12-12T08:05:15.195Z,11.85
2018-12-12T08:07:42.654Z,13.38
2018-12-12T08:10:10.167Z,12.70
2018-12-12T08:12:37.618Z,13.03
2018-12-12T08:15:05.398Z,13.18
2018-12-12T08:17:32.868Z,14.03
2018-12-12T08:20:00.311Z,14.47
2018-12-12T08:22:27.778Z,13.38
2018-12-12T08:24:55.836Z,15.78
2018-12-12T08:27:23.309Z,15.40
2018-12-12T08:29:50.766Z,15.20
2018-12-12T08:32:18.233Z,14.20
2018-12-12T08:34:45.683Z,14.93
2018-12-12T08:37:13.161Z,14.23
2018-12-12T08:39:40.607Z,14.83
2018-12-12T08:42:08.086Z,15.15
2018-12-12T08:44:35.582Z,15.95
2018-12-12T08:47:03.025Z,13.93
2018-12-12T08:49:30.528Z,15.50
2018-12-12T12:28:55.726Z,9.35
2018-12-12T12:31:23.465Z,11.43
2018-12-12T12:33:50.945Z,10.55
2018-12-12T12:36:18.410Z,10.58
2018-12-12T12:38:46.623Z,12.90
2018-12-12T12:41:14.091Z,11.48
2018-12-12T12:43:41.580Z,11.55
2018-12-12T12:46:10.061Z,10.48
2018-12-12T12:48:37.722Z,14.70
2018-12-12T12:51:05.193Z,12.33
2018-12-12T12:53:32.658Z,11.95
2018-12-12T12:56:00.134Z,11.12
2018-12-12T12:58:27.646Z,12.25
2018-12-12T13:00:55.126Z,11.73
2018-12-12T13:03:22.582Z,13.32
2018-12-12T13:05:50.073Z,11.33
2018-12-12T13:08:17.529Z,10.38
2018-12-12T13:10:45.084Z,12.85
2018-12-12T13:13:12.854Z,13.15
2018-12-12T13:15:40.835Z,11.33
2018-12-12T13:18:08.730Z,10.90
2018-12-12T13:20:36.209Z,12.15
2018-12-12T13:23:03.725Z,10.98
2018-12-12T13:25:31.234Z,12.03
2018-12-12T13:27:58.709Z,11.12
2018-12-12T13:30:26.166Z,13.62
2018-12-12T13:32:53.669Z,13.32
2018-12-12T13:35:21.162Z,12.25
2018-12-12T13:37:48.648Z,11.18
2018-12-12T13:40:16.123Z,12.60
2018-12-12T13:42:43.605Z,10.98
2018-12-12T13:45:11.079Z,10.77
2018-12-12T13:47:38.624Z,12.20
2018-12-12T13:50:06.269Z,53.35
2018-12-12T13:52:33.744Z,13.90
2018-12-12T13:55:01.211Z,14.28
2018-12-12T13:57:28.702Z,12.80
2018-12-12T13:59:56.220Z,11.18
2018-12-12T14:02:24.155Z,11.25
2018-12-12T14:04:51.598Z,12.95
2018-12-12T14:07:19.072Z,11.70
2018-12-12T14:09:46.550Z,14.18
2018-12-12T14:12:17.364Z,12.37
2018-12-12T14:14:43.478Z,11.30
2018-12-12T14:49:18.960Z,12.85
2018-12-12T14:51:46.422Z,12.03
2018-12-12T14:54:13.879Z,11.93
2018-12-12T14:56:41.355Z,14.05
2018-12-12T14:59:08.807Z,13.35
2018-12-12T15:01:36.276Z,12.35
2018-12-12T15:04:03.930Z,10.50
2018-12-12T15:06:31.389Z,10.43
2018-12-12T15:08:58.837Z,9.90
2018-12-12T15:11:26.331Z,9.00
2018-12-12T15:13:53.770Z,9.18
2018-12-12T15:16:21.282Z,10.65
2018-12-12T15:18:48.769Z,9.93
2018-12-12T15:21:16.238Z,9.83
2018-12-12T15:23:43.718Z,7.87
2018-12-12T15:26:11.165Z,9.45
2018-12-12T15:28:38.639Z,8.20
2018-12-12T15:31:06.077Z,7.60
2018-12-12T15:33:33.542Z,9.00
2018-12-12T15:36:00.993Z,7.30
2018-12-12T15:38:28.468Z,7.50
2018-12-12T15:40:56.078Z,7.78
2018-12-12T15:43:23.581Z,7.17
2018-12-12T15:45:51.130Z,6.33
2018-12-12T15:48:18.585Z,6.60
2018-12-12T15:50:46.046Z,7.15
2018-12-12T15:53:13.502Z,6.20
2018-12-12T15:55:40.986Z,9.23
2018-12-12T15:58:08.417Z,7.97
2018-12-12T16:00:36.282Z,7.17
2018-12-12T16:03:03.800Z,6.28
2018-12-12T16:05:31.280Z,7.00
2018-12-12T16:07:58.749Z,4.50
2018-12-12T16:10:26.206Z,5.45
2018-12-12T16:12:53.654Z,5.72
2018-12-12T16:15:21.161Z,5.15
2018-12-12T16:17:48.746Z,5.08
2018-12-12T16:20:16.229Z,6.17
2018-12-12T16:22:43.927Z,5.53
2018-12-12T16:25:11.476Z,5.03
2018-12-12T16:27:38.957Z,4.10
2018-12-12T16:30:06.923Z,4.50
2018-12-12T16:32:34.394Z,4.85
2018-12-12T16:35:01.831Z,4.75
2018-12-12T16:37:29.301Z,4.87
2018-12-12T16:39:56.756Z,5.53
2018-12-12T16:42:24.229Z,4.85
2018-12-12T16:44:51.839Z,5.58
2018-12-12T16:47:19.317Z,4.42
2018-12-12T16:49:46.770Z,4.33
2018-12-12T16:52:14.239Z,4.83
2018-12-12T16:54:41.703Z,3.80
2018-12-12T16:57:09.185Z,4.00
2018-12-12T16:59:36.633Z,3.55
2018-12-12T17:02:04.180Z,4.37
2018-12-12T17:04:31.640Z,4.37
2018-12-12T17:06:59.111Z,4.40
2018-12-12T17:09:26.884Z,4.45
2018-12-12T17:11:54.318Z,3.77
2018-12-12T17:14:24.498Z,4.05
2018-12-12T17:16:52.243Z,3.80
2018-12-12T17:19:19.738Z,3.25
2018-12-12T17:21:47.181Z,3.27
2018-12-12T17:24:14.775Z,4.40
2018-12-12T17:26:42.249Z,4.20
2018-12-12T17:29:09.706Z,3.75
2018-12-12T17:31:37.154Z,3.12
2018-12-12T17:34:04.729Z,2.98
2018-12-12T17:36:32.173Z,3.10
2018-12-12T17:38:59.644Z,2.92
2018-12-12T17:41:27.077Z,2.80
2018-12-12T17:43:54.547Z,2.67
2018-12-12T17:46:22.003Z,3.30
2018-12-12T17:48:49.474Z,2.92
2018-12-12T17:51:16.931Z,2.90
2018-12-12T17:53:44.421Z,2.70
2018-12-12T17:56:11.885Z,2.70
2018-12-12T17:58:39.447Z,3.67
2018-12-12T18:01:07.875Z,2.80
2018-12-12T18:03:35.334Z,3.70
2018-12-12T18:06:02.826Z,4.60
2018-12-12T18:08:30.248Z,5.37
2018-12-12T18:10:57.807Z,2.50
2018-12-12T18:13:25.253Z,2.83
2018-12-12T18:15:52.730Z,2.80
2018-12-12T18:18:20.255Z,3.00
2018-12-12T18:20:47.802Z,2.27
2018-12-12T18:23:15.233Z,2.87
2018-12-12T18:25:42.720Z,2.42
2018-12-12T18:28:10.141Z,2.45
2018-12-12T18:30:37.615Z,2.40
2018-12-12T18:33:05.133Z,2.35
2018-12-12T18:35:32.613Z,3.35
2018-12-12T18:38:00.069Z,2.42
2018-12-12T18:40:27.603Z,2.80
2018-12-12T18:42:55.043Z,2.42
2018-12-12T18:45:22.531Z,2.85
2018-12-12T18:47:49.962Z,2.25
2018-12-12T18:50:17.448Z,3.33
2018-12-12T18:52:44.891Z,2.62
2018-12-12T18:55:12.538Z,2.72
2018-12-12T18:57:40.015Z,3.17
2018-12-12T19:00:07.621Z,4.30
2018-12-12T19:02:35.093Z,3.02
2018-12-12T19:05:02.645Z,4.40
2018-12-12T19:07:30.109Z,3.87
2018-12-12T19:09:57.555Z,3.65
2018-12-12T19:12:25.026Z,4.90
2018-12-12T19:14:58.297Z,4.03
2018-12-12T19:17:25.797Z,4.00
2018-12-12T19:19:53.350Z,3.87
2018-12-12T19:22:20.828Z,4.62
2018-12-12T19:24:48.269Z,4.30
2018-12-12T19:27:15.722Z,4.75
2018-12-12T19:29:43.207Z,4.90
2018-12-12T19:32:10.666Z,5.20
2018-12-12T19:34:38.165Z,4.47
2018-12-12T19:37:05.632Z,5.53
2018-12-12T19:39:33.167Z,4.33
2018-12-12T19:42:00.704Z,5.20
2018-12-12T19:44:28.166Z,5.75
2018-12-12T19:46:55.626Z,6.08
2018-12-12T19:49:23.094Z,6.03
2018-12-12T19:51:50.554Z,5.58
2018-12-12T19:54:18.034Z,5.85
2018-12-12T19:56:45.494Z,5.60
2018-12-12T19:59:13.134Z,6.65
2018-12-12T20:01:40.602Z,6.30
2018-12-12T20:04:08.071Z,6.28
2018-12-12T20:06:35.617Z,7.30
2018-12-12T20:09:05.453Z,7.03
2018-12-12T20:11:32.923Z,7.08
2018-12-12T20:14:00.370Z,7.00
2018-12-12T20:16:27.862Z,6.65
2018-12-12T20:18:55.498Z,7.72
2018-12-12T20:21:22.974Z,6.62
2018-12-12T20:23:50.434Z,7.30
2018-12-12T20:26:17.922Z,6.95
2018-12-12T20:28:45.766Z,7.30
2018-12-12T20:31:13.254Z,7.35
2018-12-12T20:33:40.829Z,7.35
2018-12-12T20:36:08.299Z,7.50
2018-12-12T20:38:35.761Z,8.00
2018-12-12T20:41:03.235Z,7.58
2018-12-12T20:43:30.716Z,8.00
2018-12-12T20:45:58.189Z,7.85
2018-12-12T20:48:25.665Z,6.80
2018-12-12T20:50:53.255Z,7.80
2018-12-12T20:53:20.710Z,7.40
2018-12-12T20:55:48.189Z,6.70
2018-12-12T20:58:15.715Z,6.37
2018-12-12T21:00:43.242Z,7.33
2018-12-12T21:03:11.308Z,7.30
2018-12-12T21:05:39.448Z,7.45
2018-12-12T21:08:06.928Z,7.15
2018-12-12T21:10:34.365Z,6.80
2018-12-12T21:13:01.845Z,6.47
2018-12-12T21:15:29.305Z,6.75
2018-12-12T21:17:56.782Z,6.83
2018-12-12T21:20:24.261Z,7.53
2018-12-12T21:22:51.719Z,7.12
2018-12-12T21:25:19.188Z,6.33
2018-12-12T21:27:46.642Z,6.85
2018-12-12T21:30:17.190Z,6.83
2018-12-12T21:32:43.609Z,6.45
2018-12-12T21:35:11.125Z,5.72
2018-12-12T21:37:38.581Z,6.37
2018-12-12T21:40:06.940Z,6.45
2018-12-12T21:42:34.398Z,6.70
2018-12-12T21:45:01.881Z,6.78
2018-12-12T21:47:29.331Z,6.75
2018-12-12T21:49:57.494Z,6.62
2018-12-12T21:52:24.982Z,6.00
2018-12-12T21:54:52.634Z,6.65
2018-12-12T21:57:20.093Z,6.12
2018-12-12T21:59:47.552Z,6.20
2018-12-12T22:02:15.022Z,7.30
2018-12-12T22:04:42.471Z,6.08
2018-12-12T22:07:09.962Z,7.08
2018-12-12T22:09:37.421Z,6.03
2018-12-12T22:12:04.898Z,6.85
2018-12-12T22:14:32.361Z,7.42
2018-12-12T22:16:59.827Z,7.37
2018-12-12T22:19:27.299Z,7.70
2018-12-12T22:21:54.775Z,7.30
2018-12-12T22:24:22.233Z,7.35
2018-12-12T22:26:49.701Z,6.50
2018-12-12T22:29:17.183Z,6.42
2018-12-12T22:31:45.061Z,6.75
2018-12-12T22:34:12.526Z,7.33
2018-12-12T22:36:40.076Z,8.10
2018-12-12T22:39:07.620Z,7.28
2018-12-12T22:41:35.109Z,6.25
2018-12-12T22:44:02.564Z,6.67
2018-12-12T22:46:30.022Z,7.67
2018-12-12T22:48:57.507Z,7.65
2018-12-12T22:51:24.953Z,7.67
2018-12-12T22:53:52.424Z,6.45
2018-12-12T22:56:20.685Z,7.28
2018-12-12T22:58:48.185Z,8.43
2018-12-12T23:01:22.532Z,8.05
2018-12-12T23:03:50.003Z,7.72
2018-12-12T23:06:20.392Z,6.85
2018-12-12T23:08:47.807Z,7.28
2018-12-12T23:11:15.354Z,7.70
2018-12-12T23:13:42.941Z,7.00
2018-12-12T23:16:10.458Z,7.60
2018-12-12T23:18:38.010Z,7.50
2018-12-12T23:21:05.974Z,6.85
2018-12-12T23:23:33.461Z,7.00
2018-12-12T23:26:00.977Z,7.60
2018-12-12T23:28:28.429Z,7.62
2018-12-12T23:30:55.913Z,8.53
2018-12-12T23:33:24.088Z,8.20
2018-12-12T23:35:51.760Z,7.25
2018-12-12T23:38:19.223Z,7.80
2018-12-12T23:40:46.694Z,7.20
2018-12-12T23:43:14.154Z,7.75
2018-12-12T23:45:42.057Z,7.25
2018-12-12T23:48:09.932Z,9.28
2018-12-12T23:50:37.435Z,6.50
2018-12-12T23:53:04.946Z,7.50
2018-12-12T23:55:32.423Z,8.03
2018-12-12T23:57:59.902Z,8.08
